Time,TemperatureF,DewpointF,PressureIn,WindDirection,WindDirectionDegrees,WindSpeedMPH,WindSpeedGustMPH,Humidity,HourlyPrecipIn,Conditions,Clouds,dailyrainin,SolarRadiationWatts/m^2,SoftwareType,DateUTC
2013-05-31 00:03:00,73.5,71.0,30.07,SE,126,0.0,1.0,91,0.00,,,0.00,0,weatherlink.com 1.10,2013-05-31 04:03:00,
2013-05-31 00:19:00,73.2,71.0,30.07,SE,126,0.0,1.0,92,0.00,,,0.00,0,weatherlink.com 1.10,2013-05-31 04:19:00,
2013-05-31 00:34:00,73.0,71.0,30.07,SE,126,0.0,0.0,92,0.00,,,0.00,0,weatherlink.com 1.10,2013-05-31 04:34:00,
2013-05-31 00:49:00,72.7,70.0,30.07,SE,126,0.0,0.0,92,0.00,,,0.00,0,weatherlink.com 1.10,2013-05-31 04:49:00,
2013-05-31 01:04:00,72.7,70.0,30.07,SE,126,0.0,1.0,92,0.00,,,0.00,0,weatherlink.com 1.10,2013-05-31 05:04:00,
2013-05-31 01:19:00,72.5,70.0,30.07,SE,126,0.0,0.0,92,0.00,,,0.00,0,weatherlink.com 1.10,2013-05-31 05:19:00,
2013-05-31 01:34:00,72.1,70.0,30.06,SE,126,0.0,1.0,93,0.00,,,0.00,0,weatherlink.com 1.10,2013-05-31 05:34:00,
2013-05-31 01:48:00,72.0,70.0,30.07,SE,126,0.0,0.0,93,0.00,,,0.00,0,weatherlink.com 1.10,2013-05-31 05:48:00,
2013-05-31 02:05:00,71.8,70.0,30.06,SE,126,0.0,1.0,93,0.00,,,0.00,0,weatherlink.com 1.10,2013-05-31 06:05:00,
2013-05-31 02:19:00,71.8,70.0,30.05,SE,126,0.0,1.0,93,0.00,,,0.00,0,weatherlink.com 1.10,2013-05-31 06:19:00,
2013-05-31 02:34:00,71.6,70.0,30.04,SE,126,0.0,1.0,94,0.00,,,0.00,0,weatherlink.com 1.10,2013-05-31 06:34:00,
2013-05-31 02:49:00,71.6,70.0,30.04,SE,126,0.0,1.0,94,0.00,,,0.00,0,weatherlink.com 1.10,2013-05-31 06:49:00,
2013-05-31 03:04:00,71.6,70.0,30.04,SE,126,0.0,1.0,94,0.00,,,0.00,0,weatherlink.com 1.10,2013-05-31 07:04:00,
2013-05-31 03:19:00,71.5,70.0,30.04,SE,126,0.0,1.0,94,0.00,,,0.00,0,weatherlink.com 1.10,2013-05-31 07:19:00,
2013-05-31 03:34:00,71.3,70.0,30.04,SE,126,0.0,0.0,94,0.00,,,0.00,0,weatherlink.com 1.10,2013-05-31 07:34:00,
2013-05-31 03:49:00,71.1,69.0,30.03,SE,126,0.0,0.0,94,0.00,,,0.00,0,weatherlink.com 1.10,2013-05-31 07:49:00,
2013-05-31 04:04:00,70.8,69.0,30.03,SE,126,0.0,0.0,94,0.00,,,0.00,0,weatherlink.com 1.10,2013-05-31 08:04:00,
2013-05-31 04:19:00,70.6,69.0,30.03,SE,126,0.0,0.0,94,0.00,,,0.00,0,weatherlink.com 1.10,2013-05-31 08:19:00,
2013-05-31 04:34:00,70.4,69.0,30.03,SE,126,0.0,0.0,95,0.00,,,0.00,0,weatherlink.com 1.10,2013-05-31 08:34:00,
2013-05-31 04:50:00,70.4,69.0,30.03,SE,126,0.0,1.0,95,0.01,,,0.01,0,weatherlink.com 1.10,2013-05-31 08:50:00,
2013-05-31 05:04:00,70.4,69.0,30.03,SE,126,0.0,0.0,95,0.01,,,0.01,0,weatherlink.com 1.10,2013-05-31 09:04:00,
2013-05-31 05:20:00,70.3,69.0,30.03,SE,126,0.0,0.0,95,0.01,,,0.01,0,weatherlink.com 1.10,2013-05-31 09:20:00,
2013-05-31 05:35:00,70.3,69.0,30.04,SE,126,0.0,0.0,95,0.01,,,0.01,0,weatherlink.com 1.10,2013-05-31 09:35:00,
2013-05-31 05:50:00,70.4,69.0,30.04,SE,126,0.0,2.0,96,0.00,,,0.01,0,weatherlink.com 1.10,2013-05-31 09:50:00,
2013-05-31 06:05:00,70.8,70.0,30.04,SE,126,0.0,1.0,96,0.00,,,0.01,0,weatherlink.com 1.10,2013-05-31 10:05:00,
2013-05-31 06:20:00,70.9,70.0,30.04,SE,126,0.0,2.0,96,0.00,,,0.01,0,weatherlink.com 1.10,2013-05-31 10:20:00,
2013-05-31 06:35:00,70.9,70.0,30.04,SE,126,0.0,1.0,96,0.00,,,0.01,5,weatherlink.com 1.10,2013-05-31 10:35:00,
2013-05-31 06:51:00,70.9,70.0,30.04,SE,126,0.0,2.0,96,0.00,,,0.01,18,weatherlink.com 1.10,2013-05-31 10:51:00,
2013-05-31 07:06:00,71.1,70.0,30.04,SE,126,0.0,1.0,96,0.00,,,0.01,28,weatherlink.com 1.10,2013-05-31 11:06:00,
2013-05-31 07:21:00,71.6,70.0,30.04,SE,126,0.0,3.0,96,0.00,,,0.01,37,weatherlink.com 1.10,2013-05-31 11:21:00,
2013-05-31 07:35:00,72.1,71.0,30.04,SE,126,0.0,2.0,96,0.00,,,0.01,46,weatherlink.com 1.10,2013-05-31 11:35:00,
2013-05-31 07:50:00,73.0,72.0,30.05,SE,126,0.0,2.0,96,0.00,,,0.01,197,weatherlink.com 1.10,2013-05-31 11:50:00,
2013-05-31 08:05:00,73.9,73.0,30.04,ESE,121,3.0,5.0,96,0.00,,,0.01,244,weatherlink.com 1.10,2013-05-31 12:05:00,
2013-05-31 08:20:00,74.7,73.0,30.05,SE,128,3.0,4.0,95,0.00,,,0.01,285,weatherlink.com 1.10,2013-05-31 12:20:00,
2013-05-31 08:36:00,76.0,74.0,30.06,SE,131,3.0,6.0,92,0.00,,,0.01,346,weatherlink.com 1.10,2013-05-31 12:36:00,
2013-05-31 08:52:00,77.4,73.0,30.05,ESE,112,0.0,5.0,87,0.00,,,0.01,454,weatherlink.com 1.10,2013-05-31 12:52:00,
2013-05-31 09:07:00,78.5,72.0,30.06,East,99,0.0,7.0,80,0.00,,,0.01,128,weatherlink.com 1.10,2013-05-31 13:07:00,
2013-05-31 09:22:00,78.6,70.0,30.06,NE,53,1.0,9.0,74,0.00,,,0.01,243,weatherlink.com 1.10,2013-05-31 13:22:00,
2013-05-31 09:37:00,79.2,70.0,30.06,SE,129,5.0,8.0,73,0.00,,,0.01,114,weatherlink.com 1.10,2013-05-31 13:37:00,
2013-05-31 09:52:00,79.4,68.0,30.06,SE,126,0.0,10.0,68,0.00,,,0.01,693,weatherlink.com 1.10,2013-05-31 13:52:00,
2013-05-31 10:07:00,80.9,68.0,30.07,ESE,116,7.0,9.0,66,0.00,,,0.01,708,weatherlink.com 1.10,2013-05-31 14:07:00,
2013-05-31 10:22:00,82.4,69.0,30.07,ESE,121,0.0,11.0,63,0.00,,,0.01,756,weatherlink.com 1.10,2013-05-31 14:22:00,
2013-05-31 10:37:00,82.8,68.0,30.07,SSE,159,0.0,8.0,61,0.00,,,0.01,807,weatherlink.com 1.10,2013-05-31 14:37:00,
2013-05-31 10:52:00,83.0,69.0,30.07,SE,125,3.0,9.0,63,0.00,,,0.01,202,weatherlink.com 1.10,2013-05-31 14:52:00,
2013-05-31 11:07:00,83.2,69.0,30.07,ESE,108,1.0,7.0,63,0.00,,,0.01,939,weatherlink.com 1.10,2013-05-31 15:07:00,
2013-05-31 11:22:00,84.1,68.0,30.07,ESE,116,5.0,9.0,58,0.00,,,0.01,856,weatherlink.com 1.10,2013-05-31 15:22:00,
2013-05-31 11:37:00,84.0,69.0,30.07,SSE,166,0.0,11.0,60,0.00,,,0.01,956,weatherlink.com 1.10,2013-05-31 15:37:00,
2013-05-31 11:52:00,84.7,69.0,30.08,ESE,116,3.0,7.0,60,0.00,,,0.01,1023,weatherlink.com 1.10,2013-05-31 15:52:00,
2013-05-31 12:07:00,84.1,68.0,30.07,NNE,13,0.0,10.0,59,0.00,,,0.01,211,weatherlink.com 1.10,2013-05-31 16:07:00,
2013-05-31 12:23:00,83.6,69.0,30.07,ESE,103,0.0,8.0,62,0.00,,,0.01,281,weatherlink.com 1.10,2013-05-31 16:23:00,
2013-05-31 12:38:00,83.8,69.0,30.07,ESE,123,5.0,11.0,61,0.00,,,0.01,276,weatherlink.com 1.10,2013-05-31 16:38:00,
2013-05-31 12:53:00,84.1,69.0,30.07,SE,130,3.0,9.0,60,0.00,,,0.01,316,weatherlink.com 1.10,2013-05-31 16:53:00,
2013-05-31 13:08:00,83.8,68.0,30.07,ESE,111,0.0,10.0,60,0.00,,,0.01,1058,weatherlink.com 1.10,2013-05-31 17:08:00,
2013-05-31 13:23:00,84.3,69.0,30.07,ESE,107,1.0,11.0,60,0.00,,,0.01,325,weatherlink.com 1.10,2013-05-31 17:23:00,
2013-05-31 13:39:00,84.7,69.0,30.07,East,99,3.0,10.0,59,0.00,,,0.01,1069,weatherlink.com 1.10,2013-05-31 17:39:00,
2013-05-31 13:53:00,85.7,70.0,30.07,SE,140,1.0,10.0,60,0.00,,,0.01,995,weatherlink.com 1.10,2013-05-31 17:53:00,
2013-05-31 14:08:00,85.5,69.0,30.06,ESE,117,0.0,13.0,59,0.00,,,0.01,294,weatherlink.com 1.10,2013-05-31 18:08:00,
2013-05-31 14:24:00,85.3,69.0,30.06,ESE,118,1.0,14.0,58,0.00,,,0.01,1049,weatherlink.com 1.10,2013-05-31 18:24:00,
2013-05-31 14:39:00,85.5,69.0,30.06,SE,130,0.0,12.0,59,0.00,,,0.01,315,weatherlink.com 1.10,2013-05-31 18:39:00,
2013-05-31 14:53:00,84.9,68.0,30.05,ESE,103,4.0,13.0,58,0.00,,,0.01,979,weatherlink.com 1.10,2013-05-31 18:53:00,
2013-05-31 15:08:00,84.5,69.0,30.05,ESE,123,1.0,12.0,60,0.00,,,0.01,868,weatherlink.com 1.10,2013-05-31 19:08:00,
2013-05-31 15:24:00,84.1,69.0,30.04,SE,138,0.0,12.0,60,0.00,,,0.01,875,weatherlink.com 1.10,2013-05-31 19:24:00,
2013-05-31 15:39:00,83.8,68.0,30.04,SE,137,0.0,12.0,60,0.00,,,0.01,840,weatherlink.com 1.10,2013-05-31 19:39:00,
2013-05-31 15:54:00,84.1,69.0,30.04,ESE,116,2.0,11.0,61,0.00,,,0.01,819,weatherlink.com 1.10,2013-05-31 19:54:00,
2013-05-31 16:09:00,84.1,69.0,30.03,South,176,2.0,14.0,61,0.00,,,0.01,239,weatherlink.com 1.10,2013-05-31 20:09:00,
2013-05-31 16:24:00,83.4,68.0,30.03,East,98,0.0,9.0,61,0.00,,,0.01,188,weatherlink.com 1.10,2013-05-31 20:24:00,
2013-05-31 16:39:00,83.8,69.0,30.02,SE,125,3.0,9.0,61,0.00,,,0.01,156,weatherlink.com 1.10,2013-05-31 20:39:00,
2013-05-31 16:55:00,84.0,69.0,30.02,ESE,110,0.0,9.0,60,0.00,,,0.01,671,weatherlink.com 1.10,2013-05-31 20:55:00,
2013-05-31 17:10:00,83.8,68.0,30.02,NNW,331,1.0,7.0,60,0.00,,,0.01,137,weatherlink.com 1.10,2013-05-31 21:10:00,
2013-05-31 17:25:00,83.6,68.0,30.02,ESE,121,0.0,9.0,60,0.00,,,0.01,606,weatherlink.com 1.10,2013-05-31 21:25:00,
2013-05-31 17:40:00,83.2,69.0,30.02,ESE,115,0.0,6.0,63,0.00,,,0.01,135,weatherlink.com 1.10,2013-05-31 21:40:00,
2013-05-31 17:55:00,82.2,68.0,30.01,ESE,115,0.0,10.0,62,0.00,,,0.01,114,weatherlink.com 1.10,2013-05-31 21:55:00,
2013-05-31 18:10:00,81.8,68.0,30.01,ESE,117,4.0,6.0,64,0.00,,,0.01,376,weatherlink.com 1.10,2013-05-31 22:10:00,
2013-05-31 18:25:00,82.0,69.0,30.01,SE,143,0.0,8.0,64,0.00,,,0.01,125,weatherlink.com 1.10,2013-05-31 22:25:00,
2013-05-31 18:40:00,81.4,69.0,30.01,ESE,123,0.0,10.0,65,0.00,,,0.01,193,weatherlink.com 1.10,2013-05-31 22:40:00,
2013-05-31 18:55:00,80.7,69.0,30.01,SE,130,0.0,8.0,67,0.00,,,0.01,70,weatherlink.com 1.10,2013-05-31 22:55:00,
2013-05-31 19:10:00,80.5,69.0,30.01,ESE,114,4.0,5.0,67,0.00,,,0.01,79,weatherlink.com 1.10,2013-05-31 23:10:00,
2013-05-31 19:25:00,80.3,69.0,30.01,SE,126,9.0,9.0,68,0.00,,,0.01,91,weatherlink.com 1.10,2013-05-31 23:25:00,
2013-05-31 19:40:00,79.9,69.0,30.02,ESE,119,4.0,8.0,70,0.00,,,0.01,39,weatherlink.com 1.10,2013-05-31 23:40:00,
2013-05-31 19:55:00,79.2,69.0,30.02,East,97,0.0,7.0,72,0.00,,,0.01,18,weatherlink.com 1.10,2013-05-31 23:55:00,
2013-05-31 20:10:00,78.8,69.0,30.02,ESE,117,0.0,7.0,73,0.00,,,0.01,7,weatherlink.com 1.10,2013-06-01 00:10:00,
2013-05-31 20:25:00,78.1,70.0,30.03,ENE,67,0.0,6.0,75,0.00,,,0.01,0,weatherlink.com 1.10,2013-06-01 00:25:00,
2013-05-31 20:40:00,77.7,70.0,30.03,SE,125,0.0,3.0,77,0.00,,,0.01,0,weatherlink.com 1.10,2013-06-01 00:40:00,
2013-05-31 20:55:00,77.2,70.0,30.02,East,86,0.0,5.0,78,0.00,,,0.01,0,weatherlink.com 1.10,2013-06-01 00:55:00,
2013-05-31 21:10:00,76.8,70.0,30.03,East,80,0.0,2.0,79,0.00,,,0.01,0,weatherlink.com 1.10,2013-06-01 01:10:00,
2013-05-31 21:25:00,76.5,70.0,30.03,East,80,0.0,2.0,80,0.00,,,0.01,0,weatherlink.com 1.10,2013-06-01 01:25:00,
2013-05-31 21:40:00,76.1,70.0,30.04,East,82,0.0,3.0,81,0.00,,,0.01,0,weatherlink.com 1.10,2013-06-01 01:40:00,
2013-05-31 21:55:00,75.8,70.0,30.04,East,84,0.0,2.0,82,0.00,,,0.01,0,weatherlink.com 1.10,2013-06-01 01:55:00,
2013-05-31 22:10:00,75.6,70.0,30.04,East,84,1.0,1.0,83,0.00,,,0.01,0,weatherlink.com 1.10,2013-06-01 02:10:00,
2013-05-31 22:25:00,75.4,70.0,30.05,East,84,0.0,1.0,84,0.00,,,0.01,0,weatherlink.com 1.10,2013-06-01 02:25:00,
2013-05-31 22:40:00,75.3,70.0,30.05,East,84,0.0,1.0,84,0.00,,,0.01,0,weatherlink.com 1.10,2013-06-01 02:40:00,
2013-05-31 22:55:00,75.1,70.0,30.04,East,84,0.0,3.0,85,0.00,,,0.01,0,weatherlink.com 1.10,2013-06-01 02:55:00,
2013-05-31 23:10:00,75.1,70.0,30.04,East,84,0.0,3.0,85,0.00,,,0.01,0,weatherlink.com 1.10,2013-06-01 03:10:00,
2013-05-31 23:25:00,74.7,70.0,30.04,East,83,0.0,2.0,86,0.00,,,0.01,0,weatherlink.com 1.10,2013-06-01 03:25:00,
2013-05-31 23:40:00,74.7,70.0,30.04,East,83,0.0,2.0,86,0.00,,,0.01,0,weatherlink.com 1.10,2013-06-01 03:40:00,
2013-05-31 23:55:00,74.6,70.0,30.04,East,84,0.0,3.0,86,0.00,,,0.01,0,weatherlink.com 1.10,2013-06-01 03:55:00,